Pine Bluff, AR

10:13 PM CST on February 28, 2015 (GMT -0600)
Pine Bluff - Deerfield | Change Station
CLOSE
Current Station
Personal Weather Station
Location: Pine Bluff, AR
Elevation: 228 ft
Nearby Weather Stations

Elev 228 ft 34.15 °N, 92.01 °W | Updated 4 seconds ago

Overcast
Overcast
35.0 °F
Feels Like 35 °F
N
0.0
Wind Variable Wind from North
Gusts 1.0 mph

Today
High -- | Low -- °F
--% Chance of Precip.
Yesterday
High -- | Low -- °F
Precip. -- in
6:38 AM 6:02 PM
Waxing Gibbous, 82% visible
Pressure 30.39 in
Visibility 10.0 miles
Clouds Scattered Clouds 7000 ft
Scattered Clouds 8000 ft
Overcast 11000 ft
Windchill 35 °F
Dew Point 30 °F
Humidity 82%
Rainfall 0.13 in
Snow Depth Not available.
UV 0 out of 12
Pollen 4.60 out of 12
Air Quality Not available.
Flu Activity Not available.
METAR KPBF 010353Z AUTO 02007KT 10SM SCT070 SCT080 OVC110 02/M03 A3039 RMK AO2 SLP291 T00171028

More Conditions Fewer Conditions

Pressure 30.39 in
Visibility 10.0 miles
Clouds Scattered Clouds 7000 ft
Scattered Clouds 8000 ft
Overcast 11000 ft
Windchill 35 °F
Dew Point 30 °F
Humidity 82%
Rainfall 0.13 in
Snow Depth Not available.
UV 0 out of 12
Pollen 4.60 out of 12
Air Quality Not available.
Flu Activity Not available.
METAR KPBF 010353Z AUTO 02007KT 10SM SCT070 SCT080 OVC110 02/M03 A3039 RMK AO2 SLP291 T00171028

More Conditions Fewer Conditions

10-Day Weather Forecast

Almanac

Astronomy

Feb. 28, 2015 Rise Set
Actual Time
Civil Twilight
Nautical Twilight
Astronomical Twilight
Moon
Length of Visible Light
Length of Day
Tomorrow will be .
, % of the Moon is Illuminated

Today's Extremes

State Highs State Lows

Community

WunderPhotos

Upload Photos

1,801,314 photos uploaded!

WunderBlogs® & News

Nearby

Air Quality

  Air Quality AQ Index Pollutant
Not available.

Snow Depth

Station Depth Elevation

Earthquake Activity

City Distance Mag. Time & Date
Minimum magnitude displayed is 2.5.

Coastal Water Temperatures

Place Temperature

Nearby Weather Stations